sensor_id;sensor_type;location;lat;lon;timestamp;P1;durP1;ratioP1;P2;durP2;ratioP2
11823;SDS011;5969;50.780;7.726;2023-04-06T00:01:18;5.07;;;4.57;;
11823;SDS011;5969;50.780;7.726;2023-04-06T00:03:45;6.90;;;4.60;;
11823;SDS011;5969;50.780;7.726;2023-04-06T00:06:11;7.95;;;5.65;;
11823;SDS011;5969;50.780;7.726;2023-04-06T00:08:38;7.82;;;4.80;;
11823;SDS011;5969;50.780;7.726;2023-04-06T00:11:06;6.78;;;5.40;;
11823;SDS011;5969;50.780;7.726;2023-04-06T00:13:33;7.15;;;5.18;;
11823;SDS011;5969;50.780;7.726;2023-04-06T00:15:59;6.25;;;5.65;;
11823;SDS011;5969;50.780;7.726;2023-04-06T00:18:27;6.85;;;5.00;;
11823;SDS011;5969;50.780;7.726;2023-04-06T00:20:54;9.52;;;5.22;;
11823;SDS011;5969;50.780;7.726;2023-04-06T00:23:21;5.53;;;4.95;;
11823;SDS011;5969;50.780;7.726;2023-04-06T00:25:48;7.13;;;5.55;;
11823;SDS011;5969;50.780;7.726;2023-04-06T00:28:15;5.90;;;5.25;;
11823;SDS011;5969;50.780;7.726;2023-04-06T00:30:42;5.95;;;4.63;;
11823;SDS011;5969;50.780;7.726;2023-04-06T00:33:09;5.13;;;4.63;;
11823;SDS011;5969;50.780;7.726;2023-04-06T00:35:37;7.22;;;5.05;;
11823;SDS011;5969;50.780;7.726;2023-04-06T00:38:04;7.43;;;5.30;;
11823;SDS011;5969;50.780;7.726;2023-04-06T00:40:31;6.38;;;4.95;;
11823;SDS011;5969;50.780;7.726;2023-04-06T00:42:59;5.43;;;4.70;;
11823;SDS011;5969;50.780;7.726;2023-04-06T00:45:26;7.75;;;5.25;;
11823;SDS011;5969;50.780;7.726;2023-04-06T00:47:54;5.10;;;4.40;;
11823;SDS011;5969;50.780;7.726;2023-04-06T00:50:21;5.63;;;4.40;;
11823;SDS011;5969;50.780;7.726;2023-04-06T00:52:50;8.63;;;4.90;;
11823;SDS011;5969;50.780;7.726;2023-04-06T00:55:17;6.68;;;4.97;;
11823;SDS011;5969;50.780;7.726;2023-04-06T00:57:43;5.72;;;4.88;;
11823;SDS011;5969;50.780;7.726;2023-04-06T01:02:43;5.75;;;4.90;;
11823;SDS011;5969;50.780;7.726;2023-04-06T01:05:11;8.27;;;4.85;;
11823;SDS011;5969;50.780;7.726;2023-04-06T01:07:38;5.97;;;4.80;;
11823;SDS011;5969;50.780;7.726;2023-04-06T01:10:06;5.28;;;4.57;;
11823;SDS011;5969;50.780;7.726;2023-04-06T01:12:34;6.88;;;4.82;;
11823;SDS011;5969;50.780;7.726;2023-04-06T01:15:01;6.68;;;4.85;;
11823;SDS011;5969;50.780;7.726;2023-04-06T01:17:29;5.43;;;4.65;;
11823;SDS011;5969;50.780;7.726;2023-04-06T01:19:56;6.78;;;5.05;;
11823;SDS011;5969;50.780;7.726;2023-04-06T01:22:24;6.85;;;5.13;;
11823;SDS011;5969;50.780;7.726;2023-04-06T01:24:51;5.90;;;5.30;;
11823;SDS011;5969;50.780;7.726;2023-04-06T01:27:17;8.20;;;5.45;;
11823;SDS011;5969;50.780;7.726;2023-04-06T01:29:44;7.13;;;5.47;;
11823;SDS011;5969;50.780;7.726;2023-04-06T01:32:11;8.10;;;6.07;;
11823;SDS011;5969;50.780;7.726;2023-04-06T01:34:38;7.75;;;6.10;;
11823;SDS011;5969;50.780;7.726;2023-04-06T01:37:11;5.97;;;5.00;;
11823;SDS011;5969;50.780;7.726;2023-04-06T01:39:39;6.82;;;4.93;;
11823;SDS011;5969;50.780;7.726;2023-04-06T01:42:07;5.57;;;5.00;;
11823;SDS011;5969;50.780;7.726;2023-04-06T01:44:33;5.95;;;4.53;;
11823;SDS011;5969;50.780;7.726;2023-04-06T01:47:00;9.10;;;4.88;;
11823;SDS011;5969;50.780;7.726;2023-04-06T01:49:27;6.68;;;5.00;;
11823;SDS011;5969;50.780;7.726;2023-04-06T01:51:54;7.43;;;5.28;;
11823;SDS011;5969;50.780;7.726;2023-04-06T01:54:21;7.50;;;5.50;;
11823;SDS011;5969;50.780;7.726;2023-04-06T01:56:49;5.97;;;5.38;;
11823;SDS011;5969;50.780;7.726;2023-04-06T01:59:17;7.00;;;5.30;;
11823;SDS011;5969;50.780;7.726;2023-04-06T02:01:44;5.68;;;5.05;;
11823;SDS011;5969;50.780;7.726;2023-04-06T02:04:11;8.55;;;5.35;;
11823;SDS011;5969;50.780;7.726;2023-04-06T02:06:39;8.27;;;6.25;;
11823;SDS011;5969;50.780;7.726;2023-04-06T02:09:06;7.65;;;6.43;;
11823;SDS011;5969;50.780;7.726;2023-04-06T02:11:32;8.63;;;6.88;;
11823;SDS011;5969;50.780;7.726;2023-04-06T02:14:01;8.18;;;6.70;;
11823;SDS011;5969;50.780;7.726;2023-04-06T02:16:28;8.68;;;6.32;;
11823;SDS011;5969;50.780;7.726;2023-04-06T02:18:55;6.85;;;5.40;;
11823;SDS011;5969;50.780;7.726;2023-04-06T02:21:22;7.22;;;5.35;;
11823;SDS011;5969;50.780;7.726;2023-04-06T02:23:49;6.60;;;5.18;;
11823;SDS011;5969;50.780;7.726;2023-04-06T02:26:15;7.13;;;4.53;;
11823;SDS011;5969;50.780;7.726;2023-04-06T02:28:44;6.13;;;4.57;;
11823;SDS011;5969;50.780;7.726;2023-04-06T02:31:12;7.95;;;5.05;;
11823;SDS011;5969;50.780;7.726;2023-04-06T02:33:39;8.73;;;6.95;;
11823;SDS011;5969;50.780;7.726;2023-04-06T02:36:07;9.90;;;5.30;;
11823;SDS011;5969;50.780;7.726;2023-04-06T02:38:34;7.45;;;5.30;;
11823;SDS011;5969;50.780;7.726;2023-04-06T02:41:01;9.02;;;6.28;;
11823;SDS011;5969;50.780;7.726;2023-04-06T02:43:28;9.32;;;6.00;;
11823;SDS011;5969;50.780;7.726;2023-04-06T02:45:55;10.25;;;7.20;;
11823;SDS011;5969;50.780;7.726;2023-04-06T02:48:23;8.68;;;6.90;;
11823;SDS011;5969;50.780;7.726;2023-04-06T02:50:50;9.05;;;7.10;;
11823;SDS011;5969;50.780;7.726;2023-04-06T02:53:17;7.75;;;6.50;;
11823;SDS011;5969;50.780;7.726;2023-04-06T02:55:43;9.00;;;6.72;;
11823;SDS011;5969;50.780;7.726;2023-04-06T02:58:10;8.82;;;6.28;;
11823;SDS011;5969;50.780;7.726;2023-04-06T03:00:52;7.47;;;5.43;;
11823;SDS011;5969;50.780;7.726;2023-04-06T03:03:19;6.18;;;4.80;;
11823;SDS011;5969;50.780;7.726;2023-04-06T03:05:47;6.05;;;4.40;;
11823;SDS011;5969;50.780;7.726;2023-04-06T03:08:14;6.10;;;4.90;;
11823;SDS011;5969;50.780;7.726;2023-04-06T03:10:41;5.88;;;4.57;;
11823;SDS011;5969;50.780;7.726;2023-04-06T03:13:08;6.35;;;4.78;;
11823;SDS011;5969;50.780;7.726;2023-04-06T03:15:35;8.93;;;5.28;;
11823;SDS011;5969;50.780;7.726;2023-04-06T03:18:01;7.55;;;5.25;;
11823;SDS011;5969;50.780;7.726;2023-04-06T03:20:28;8.18;;;5.30;;
11823;SDS011;5969;50.780;7.726;2023-04-06T03:22:59;7.40;;;5.63;;
11823;SDS011;5969;50.780;7.726;2023-04-06T03:25:25;6.32;;;5.05;;
11823;SDS011;5969;50.780;7.726;2023-04-06T03:27:52;10.13;;;5.80;;
11823;SDS011;5969;50.780;7.726;2023-04-06T03:30:19;6.88;;;5.65;;
11823;SDS011;5969;50.780;7.726;2023-04-06T03:32:46;5.30;;;4.80;;
11823;SDS011;5969;50.780;7.726;2023-04-06T03:35:13;7.57;;;5.03;;
11823;SDS011;5969;50.780;7.726;2023-04-06T03:37:40;7.28;;;5.28;;
11823;SDS011;5969;50.780;7.726;2023-04-06T03:42:38;7.63;;;5.60;;
11823;SDS011;5969;50.780;7.726;2023-04-06T03:45:05;7.22;;;5.38;;
11823;SDS011;5969;50.780;7.726;2023-04-06T03:47:33;9.25;;;6.60;;
11823;SDS011;5969;50.780;7.726;2023-04-06T03:50:00;9.10;;;7.05;;
11823;SDS011;5969;50.780;7.726;2023-04-06T03:52:28;8.98;;;6.72;;
11823;SDS011;5969;50.780;7.726;2023-04-06T03:54:55;8.35;;;6.63;;
11823;SDS011;5969;50.780;7.726;2023-04-06T03:57:23;8.65;;;7.30;;
11823;SDS011;5969;50.780;7.726;2023-04-06T03:59:50;8.80;;;6.95;;
11823;SDS011;5969;50.780;7.726;2023-04-06T04:02:17;8.60;;;6.32;;
11823;SDS011;5969;50.780;7.726;2023-04-06T04:04:44;8.63;;;6.55;;
11823;SDS011;5969;50.780;7.726;2023-04-06T04:07:10;7.40;;;6.60;;
11823;SDS011;5969;50.780;7.726;2023-04-06T04:09:37;10.10;;;6.13;;
11823;SDS011;5969;50.780;7.726;2023-04-06T04:12:04;9.30;;;6.72;;
11823;SDS011;5969;50.780;7.726;2023-04-06T04:14:35;8.05;;;6.55;;
11823;SDS011;5969;50.780;7.726;2023-04-06T04:17:02;6.80;;;6.10;;
11823;SDS011;5969;50.780;7.726;2023-04-06T04:19:29;9.20;;;6.75;;
11823;SDS011;5969;50.780;7.726;2023-04-06T04:21:55;8.80;;;6.85;;
11823;SDS011;5969;50.780;7.726;2023-04-06T04:24:22;9.13;;;6.57;;
11823;SDS011;5969;50.780;7.726;2023-04-06T04:26:50;8.95;;;6.63;;
11823;SDS011;5969;50.780;7.726;2023-04-06T04:29:17;10.50;;;7.32;;
11823;SDS011;5969;50.780;7.726;2023-04-06T04:31:47;9.50;;;7.18;;
11823;SDS011;5969;50.780;7.726;2023-04-06T04:34:24;11.55;;;6.63;;
11823;SDS011;5969;50.780;7.726;2023-04-06T04:36:51;11.88;;;7.07;;
11823;SDS011;5969;50.780;7.726;2023-04-06T04:41:54;6.85;;;5.15;;
11823;SDS011;5969;50.780;7.726;2023-04-06T04:44:21;6.05;;;5.38;;
11823;SDS011;5969;50.780;7.726;2023-04-06T04:46:49;10.48;;;6.47;;
11823;SDS011;5969;50.780;7.726;2023-04-06T04:49:16;6.88;;;5.15;;
11823;SDS011;5969;50.780;7.726;2023-04-06T04:51:42;6.07;;;5.07;;
11823;SDS011;5969;50.780;7.726;2023-04-06T04:54:09;10.90;;;6.82;;
11823;SDS011;5969;50.780;7.726;2023-04-06T04:56:36;9.50;;;7.20;;
11823;SDS011;5969;50.780;7.726;2023-04-06T04:59:03;10.05;;;7.13;;
11823;SDS011;5969;50.780;7.726;2023-04-06T05:01:30;10.05;;;7.40;;
11823;SDS011;5969;50.780;7.726;2023-04-06T05:03:58;8.23;;;6.45;;
11823;SDS011;5969;50.780;7.726;2023-04-06T05:06:25;6.63;;;5.72;;
11823;SDS011;5969;50.780;7.726;2023-04-06T05:08:52;8.52;;;5.90;;
11823;SDS011;5969;50.780;7.726;2023-04-06T05:11:18;7.10;;;6.13;;
11823;SDS011;5969;50.780;7.726;2023-04-06T05:13:50;9.10;;;6.40;;
11823;SDS011;5969;50.780;7.726;2023-04-06T05:16:17;6.38;;;5.70;;
11823;SDS011;5969;50.780;7.726;2023-04-06T05:18:44;10.20;;;6.90;;
11823;SDS011;5969;50.780;7.726;2023-04-06T05:21:12;9.32;;;6.70;;
11823;SDS011;5969;50.780;7.726;2023-04-06T05:23:39;9.35;;;7.80;;
11823;SDS011;5969;50.780;7.726;2023-04-06T05:26:06;8.38;;;6.07;;
11823;SDS011;5969;50.780;7.726;2023-04-06T05:28:32;8.45;;;7.55;;
11823;SDS011;5969;50.780;7.726;2023-04-06T05:30:59;7.95;;;6.60;;
11823;SDS011;5969;50.780;7.726;2023-04-06T05:33:26;8.52;;;6.43;;
11823;SDS011;5969;50.780;7.726;2023-04-06T05:35:53;8.13;;;5.68;;
11823;SDS011;5969;50.780;7.726;2023-04-06T05:38:21;7.65;;;6.05;;
11823;SDS011;5969;50.780;7.726;2023-04-06T05:40:54;9.38;;;6.03;;
11823;SDS011;5969;50.780;7.726;2023-04-06T05:43:29;12.25;;;5.93;;
11823;SDS011;5969;50.780;7.726;2023-04-06T05:45:56;8.75;;;6.22;;
11823;SDS011;5969;50.780;7.726;2023-04-06T05:48:23;9.45;;;6.53;;
11823;SDS011;5969;50.780;7.726;2023-04-06T05:50:50;7.80;;;6.15;;
11823;SDS011;5969;50.780;7.726;2023-04-06T05:53:18;8.57;;;7.13;;
11823;SDS011;5969;50.780;7.726;2023-04-06T05:55:47;12.57;;;7.35;;
11823;SDS011;5969;50.780;7.726;2023-04-06T05:58:14;7.53;;;6.10;;
11823;SDS011;5969;50.780;7.726;2023-04-06T06:00:42;8.65;;;6.25;;
11823;SDS011;5969;50.780;7.726;2023-04-06T06:03:11;7.32;;;5.97;;
11823;SDS011;5969;50.780;7.726;2023-04-06T06:05:40;10.13;;;7.00;;
11823;SDS011;5969;50.780;7.726;2023-04-06T06:08:07;8.82;;;6.47;;
11823;SDS011;5969;50.780;7.726;2023-04-06T06:10:33;11.65;;;7.40;;
11823;SDS011;5969;50.780;7.726;2023-04-06T06:13:02;10.45;;;6.55;;
11823;SDS011;5969;50.780;7.726;2023-04-06T06:15:28;9.15;;;6.60;;
11823;SDS011;5969;50.780;7.726;2023-04-06T06:17:55;7.30;;;6.20;;
11823;SDS011;5969;50.780;7.726;2023-04-06T06:20:22;8.57;;;6.65;;
11823;SDS011;5969;50.780;7.726;2023-04-06T06:22:49;7.50;;;6.40;;
11823;SDS011;5969;50.780;7.726;2023-04-06T06:25:16;7.90;;;7.03;;
11823;SDS011;5969;50.780;7.726;2023-04-06T06:27:43;9.40;;;6.40;;
11823;SDS011;5969;50.780;7.726;2023-04-06T06:30:11;7.18;;;6.35;;
11823;SDS011;5969;50.780;7.726;2023-04-06T06:32:38;7.53;;;6.28;;
11823;SDS011;5969;50.780;7.726;2023-04-06T06:35:05;10.05;;;7.00;;
11823;SDS011;5969;50.780;7.726;2023-04-06T06:37:33;7.50;;;6.38;;
11823;SDS011;5969;50.780;7.726;2023-04-06T06:39:59;8.30;;;6.45;;
11823;SDS011;5969;50.780;7.726;2023-04-06T06:42:26;9.35;;;6.50;;
11823;SDS011;5969;50.780;7.726;2023-04-06T06:44:53;6.82;;;6.00;;
11823;SDS011;5969;50.780;7.726;2023-04-06T06:47:22;7.05;;;6.13;;
11823;SDS011;5969;50.780;7.726;2023-04-06T06:49:49;11.10;;;6.00;;
11823;SDS011;5969;50.780;7.726;2023-04-06T06:52:15;10.07;;;6.43;;
11823;SDS011;5969;50.780;7.726;2023-04-06T06:54:42;6.70;;;6.00;;
11823;SDS011;5969;50.780;7.726;2023-04-06T06:57:09;8.82;;;6.43;;
11823;SDS011;5969;50.780;7.726;2023-04-06T06:59:36;11.27;;;6.82;;
11823;SDS011;5969;50.780;7.726;2023-04-06T07:02:03;6.95;;;6.25;;
11823;SDS011;5969;50.780;7.726;2023-04-06T07:04:31;7.07;;;6.38;;
11823;SDS011;5969;50.780;7.726;2023-04-06T07:06:58;8.85;;;6.93;;
11823;SDS011;5969;50.780;7.726;2023-04-06T07:09:25;11.55;;;8.77;;
11823;SDS011;5969;50.780;7.726;2023-04-06T07:11:52;11.07;;;7.78;;
11823;SDS011;5969;50.780;7.726;2023-04-06T07:14:24;9.15;;;6.85;;
11823;SDS011;5969;50.780;7.726;2023-04-06T07:16:51;7.63;;;6.22;;
11823;SDS011;5969;50.780;7.726;2023-04-06T07:19:22;7.82;;;6.25;;
11823;SDS011;5969;50.780;7.726;2023-04-06T07:21:50;6.63;;;5.57;;
11823;SDS011;5969;50.780;7.726;2023-04-06T07:24:17;7.60;;;6.18;;
11823;SDS011;5969;50.780;7.726;2023-04-06T07:26:43;7.22;;;5.68;;
11823;SDS011;5969;50.780;7.726;2023-04-06T07:29:10;6.13;;;5.47;;
11823;SDS011;5969;50.780;7.726;2023-04-06T07:31:37;7.70;;;5.57;;
11823;SDS011;5969;50.780;7.726;2023-04-06T07:34:04;9.73;;;5.78;;
11823;SDS011;5969;50.780;7.726;2023-04-06T07:36:31;11.02;;;5.82;;
11823;SDS011;5969;50.780;7.726;2023-04-06T07:38:59;7.90;;;5.93;;
11823;SDS011;5969;50.780;7.726;2023-04-06T07:41:26;7.40;;;5.25;;
11823;SDS011;5969;50.780;7.726;2023-04-06T07:43:53;7.43;;;5.35;;
11823;SDS011;5969;50.780;7.726;2023-04-06T07:46:20;7.05;;;4.85;;
11823;SDS011;5969;50.780;7.726;2023-04-06T07:48:47;7.53;;;5.60;;
11823;SDS011;5969;50.780;7.726;2023-04-06T07:51:15;7.13;;;5.38;;
11823;SDS011;5969;50.780;7.726;2023-04-06T07:53:43;6.32;;;4.93;;
11823;SDS011;5969;50.780;7.726;2023-04-06T07:56:11;7.40;;;5.30;;
11823;SDS011;5969;50.780;7.726;2023-04-06T07:58:40;7.45;;;5.82;;
11823;SDS011;5969;50.780;7.726;2023-04-06T08:01:07;9.68;;;5.85;;
11823;SDS011;5969;50.780;7.726;2023-04-06T08:03:33;9.00;;;6.35;;
11823;SDS011;5969;50.780;7.726;2023-04-06T08:06:01;8.63;;;5.70;;
11823;SDS011;5969;50.780;7.726;2023-04-06T08:08:28;8.63;;;6.20;;
11823;SDS011;5969;50.780;7.726;2023-04-06T08:10:55;10.80;;;6.38;;
11823;SDS011;5969;50.780;7.726;2023-04-06T08:13:24;9.45;;;6.30;;
11823;SDS011;5969;50.780;7.726;2023-04-06T08:15:51;9.98;;;6.70;;
11823;SDS011;5969;50.780;7.726;2023-04-06T08:18:18;9.30;;;6.20;;
11823;SDS011;5969;50.780;7.726;2023-04-06T08:20:45;9.25;;;6.32;;
11823;SDS011;5969;50.780;7.726;2023-04-06T08:23:12;9.93;;;6.32;;
11823;SDS011;5969;50.780;7.726;2023-04-06T08:25:39;10.30;;;7.03;;
11823;SDS011;5969;50.780;7.726;2023-04-06T08:28:05;8.07;;;6.30;;
11823;SDS011;5969;50.780;7.726;2023-04-06T08:30:35;12.93;;;6.80;;
11823;SDS011;5969;50.780;7.726;2023-04-06T08:33:02;9.13;;;6.28;;
11823;SDS011;5969;50.780;7.726;2023-04-06T08:35:29;9.70;;;6.95;;
11823;SDS011;5969;50.780;7.726;2023-04-06T08:37:56;8.55;;;6.32;;
11823;SDS011;5969;50.780;7.726;2023-04-06T08:40:23;9.85;;;6.97;;
11823;SDS011;5969;50.780;7.726;2023-04-06T08:42:51;10.40;;;7.20;;
11823;SDS011;5969;50.780;7.726;2023-04-06T08:45:22;9.35;;;7.10;;
11823;SDS011;5969;50.780;7.726;2023-04-06T08:47:50;9.93;;;6.80;;
11823;SDS011;5969;50.780;7.726;2023-04-06T08:50:18;8.85;;;6.90;;
11823;SDS011;5969;50.780;7.726;2023-04-06T08:52:45;9.85;;;7.53;;
11823;SDS011;5969;50.780;7.726;2023-04-06T08:55:14;9.88;;;6.90;;
11823;SDS011;5969;50.780;7.726;2023-04-06T08:57:41;8.23;;;6.45;;
11823;SDS011;5969;50.780;7.726;2023-04-06T09:03:18;8.65;;;6.80;;
11823;SDS011;5969;50.780;7.726;2023-04-06T09:05:47;9.52;;;6.45;;
11823;SDS011;5969;50.780;7.726;2023-04-06T09:08:14;10.45;;;6.95;;
11823;SDS011;5969;50.780;7.726;2023-04-06T09:10:41;9.50;;;7.10;;
11823;SDS011;5969;50.780;7.726;2023-04-06T09:13:08;9.70;;;6.38;;
11823;SDS011;5969;50.780;7.726;2023-04-06T09:15:35;8.77;;;6.40;;
11823;SDS011;5969;50.780;7.726;2023-04-06T09:18:03;13.48;;;6.97;;
11823;SDS011;5969;50.780;7.726;2023-04-06T09:20:33;8.60;;;6.63;;
11823;SDS011;5969;50.780;7.726;2023-04-06T09:23:00;8.85;;;6.70;;
11823;SDS011;5969;50.780;7.726;2023-04-06T09:25:26;11.48;;;7.32;;
11823;SDS011;5969;50.780;7.726;2023-04-06T09:27:59;12.98;;;6.93;;
11823;SDS011;5969;50.780;7.726;2023-04-06T09:30:29;12.88;;;7.68;;
11823;SDS011;5969;50.780;7.726;2023-04-06T09:32:57;9.95;;;7.47;;
11823;SDS011;5969;50.780;7.726;2023-04-06T09:35:24;11.35;;;8.00;;
11823;SDS011;5969;50.780;7.726;2023-04-06T09:37:57;9.73;;;7.00;;
11823;SDS011;5969;50.780;7.726;2023-04-06T09:40:24;12.02;;;7.85;;
11823;SDS011;5969;50.780;7.726;2023-04-06T09:42:51;10.35;;;7.30;;
11823;SDS011;5969;50.780;7.726;2023-04-06T09:45:19;9.95;;;7.13;;
11823;SDS011;5969;50.780;7.726;2023-04-06T09:47:46;9.77;;;7.07;;
11823;SDS011;5969;50.780;7.726;2023-04-06T09:50:15;9.00;;;7.10;;
11823;SDS011;5969;50.780;7.726;2023-04-06T09:52:42;12.45;;;8.35;;
11823;SDS011;5969;50.780;7.726;2023-04-06T09:55:17;11.77;;;7.47;;
11823;SDS011;5969;50.780;7.726;2023-04-06T09:57:50;11.73;;;7.47;;
11823;SDS011;5969;50.780;7.726;2023-04-06T10:00:23;11.52;;;7.28;;
11823;SDS011;5969;50.780;7.726;2023-04-06T10:02:54;12.88;;;7.65;;
11823;SDS011;5969;50.780;7.726;2023-04-06T10:05:27;12.05;;;8.50;;
11823;SDS011;5969;50.780;7.726;2023-04-06T10:08:00;12.32;;;8.60;;
11823;SDS011;5969;50.780;7.726;2023-04-06T10:10:32;11.10;;;7.50;;
11823;SDS011;5969;50.780;7.726;2023-04-06T10:12:59;10.73;;;7.50;;
11823;SDS011;5969;50.780;7.726;2023-04-06T10:15:27;11.04;;;7.84;;
11823;SDS011;5969;50.780;7.726;2023-04-06T10:17:54;11.43;;;8.10;;
11823;SDS011;5969;50.780;7.726;2023-04-06T10:20:22;12.50;;;8.15;;
11823;SDS011;5969;50.780;7.726;2023-04-06T10:22:55;14.13;;;8.50;;
11823;SDS011;5969;50.780;7.726;2023-04-06T10:25:26;12.98;;;8.02;;
11823;SDS011;5969;50.780;7.726;2023-04-06T10:28:00;13.15;;;8.65;;
11823;SDS011;5969;50.780;7.726;2023-04-06T10:30:27;11.18;;;7.82;;
11823;SDS011;5969;50.780;7.726;2023-04-06T10:32:54;10.70;;;8.13;;
11823;SDS011;5969;50.780;7.726;2023-04-06T10:35:21;11.95;;;7.80;;
11823;SDS011;5969;50.780;7.726;2023-04-06T10:37:52;12.32;;;7.55;;
11823;SDS011;5969;50.780;7.726;2023-04-06T10:40:26;14.20;;;8.35;;
11823;SDS011;5969;50.780;7.726;2023-04-06T10:42:54;12.73;;;7.93;;
11823;SDS011;5969;50.780;7.726;2023-04-06T10:45:24;12.10;;;7.88;;
11823;SDS011;5969;50.780;7.726;2023-04-06T10:47:53;11.38;;;7.68;;
11823;SDS011;5969;50.780;7.726;2023-04-06T10:50:21;14.57;;;8.55;;
11823;SDS011;5969;50.780;7.726;2023-04-06T10:52:58;11.02;;;8.18;;
11823;SDS011;5969;50.780;7.726;2023-04-06T10:55:25;16.67;;;8.50;;
11823;SDS011;5969;50.780;7.726;2023-04-06T10:57:53;9.23;;;7.43;;
11823;SDS011;5969;50.780;7.726;2023-04-06T11:00:20;12.85;;;7.57;;
11823;SDS011;5969;50.780;7.726;2023-04-06T11:02:48;12.43;;;7.97;;
11823;SDS011;5969;50.780;7.726;2023-04-06T11:05:15;12.25;;;7.93;;
11823;SDS011;5969;50.780;7.726;2023-04-06T11:07:43;15.52;;;9.18;;
11823;SDS011;5969;50.780;7.726;2023-04-06T11:10:10;11.30;;;7.82;;
11823;SDS011;5969;50.780;7.726;2023-04-06T11:12:37;13.27;;;7.82;;
11823;SDS011;5969;50.780;7.726;2023-04-06T11:15:05;11.13;;;7.40;;
11823;SDS011;5969;50.780;7.726;2023-04-06T11:17:33;11.85;;;8.25;;
11823;SDS011;5969;50.780;7.726;2023-04-06T11:20:02;12.00;;;7.88;;
11823;SDS011;5969;50.780;7.726;2023-04-06T11:22:30;11.82;;;8.00;;
11823;SDS011;5969;50.780;7.726;2023-04-06T11:25:04;12.35;;;8.30;;
11823;SDS011;5969;50.780;7.726;2023-04-06T11:27:31;11.75;;;7.88;;
11823;SDS011;5969;50.780;7.726;2023-04-06T11:29:59;13.60;;;8.77;;
11823;SDS011;5969;50.780;7.726;2023-04-06T11:32:26;9.95;;;7.82;;
11823;SDS011;5969;50.780;7.726;2023-04-06T11:34:53;13.30;;;8.27;;
11823;SDS011;5969;50.780;7.726;2023-04-06T11:37:21;11.20;;;8.25;;
11823;SDS011;5969;50.780;7.726;2023-04-06T11:39:54;14.02;;;9.02;;
11823;SDS011;5969;50.780;7.726;2023-04-06T11:42:22;9.77;;;7.40;;
11823;SDS011;5969;50.780;7.726;2023-04-06T11:44:50;13.23;;;8.25;;
11823;SDS011;5969;50.780;7.726;2023-04-06T11:47:18;10.43;;;8.45;;
11823;SDS011;5969;50.780;7.726;2023-04-06T11:49:45;10.23;;;8.00;;
11823;SDS011;5969;50.780;7.726;2023-04-06T11:52:14;10.50;;;8.35;;
11823;SDS011;5969;50.780;7.726;2023-04-06T11:54:43;11.27;;;7.80;;
11823;SDS011;5969;50.780;7.726;2023-04-06T11:57:10;11.80;;;8.00;;
11823;SDS011;5969;50.780;7.726;2023-04-06T11:59:37;10.23;;;8.20;;
11823;SDS011;5969;50.780;7.726;2023-04-06T12:02:04;13.07;;;8.73;;
11823;SDS011;5969;50.780;7.726;2023-04-06T12:04:31;10.00;;;8.18;;
11823;SDS011;5969;50.780;7.726;2023-04-06T12:06:59;10.50;;;8.27;;
11823;SDS011;5969;50.780;7.726;2023-04-06T12:09:26;9.80;;;7.82;;
11823;SDS011;5969;50.780;7.726;2023-04-06T12:11:54;11.65;;;7.88;;
11823;SDS011;5969;50.780;7.726;2023-04-06T12:14:22;10.00;;;8.25;;
11823;SDS011;5969;50.780;7.726;2023-04-06T12:16:49;11.07;;;7.47;;
11823;SDS011;5969;50.780;7.726;2023-04-06T12:19:16;10.82;;;8.10;;
11823;SDS011;5969;50.780;7.726;2023-04-06T12:21:46;10.27;;;7.85;;
11823;SDS011;5969;50.780;7.726;2023-04-06T12:24:12;11.02;;;7.78;;
11823;SDS011;5969;50.780;7.726;2023-04-06T12:26:40;8.68;;;7.35;;
11823;SDS011;5969;50.780;7.726;2023-04-06T12:29:08;9.57;;;7.47;;
11823;SDS011;5969;50.780;7.726;2023-04-06T12:31:35;13.13;;;7.97;;
11823;SDS011;5969;50.780;7.726;2023-04-06T12:34:03;10.23;;;7.55;;
11823;SDS011;5969;50.780;7.726;2023-04-06T12:36:30;10.50;;;7.63;;
11823;SDS011;5969;50.780;7.726;2023-04-06T12:38:57;9.70;;;7.35;;
11823;SDS011;5969;50.780;7.726;2023-04-06T12:41:25;9.32;;;7.10;;
11823;SDS011;5969;50.780;7.726;2023-04-06T12:43:52;10.77;;;7.95;;
11823;SDS011;5969;50.780;7.726;2023-04-06T12:46:20;10.13;;;7.13;;
11823;SDS011;5969;50.780;7.726;2023-04-06T12:48:47;10.30;;;7.28;;
11823;SDS011;5969;50.780;7.726;2023-04-06T12:51:13;10.40;;;7.45;;
11823;SDS011;5969;50.780;7.726;2023-04-06T12:53:42;10.80;;;7.60;;
11823;SDS011;5969;50.780;7.726;2023-04-06T12:56:12;9.32;;;6.90;;
11823;SDS011;5969;50.780;7.726;2023-04-06T12:58:40;8.77;;;6.47;;
11823;SDS011;5969;50.780;7.726;2023-04-06T13:01:07;11.82;;;6.80;;
11823;SDS011;5969;50.780;7.726;2023-04-06T13:03:37;9.07;;;6.47;;
11823;SDS011;5969;50.780;7.726;2023-04-06T13:06:03;9.68;;;7.65;;
11823;SDS011;5969;50.780;7.726;2023-04-06T13:08:30;9.10;;;7.35;;
11823;SDS011;5969;50.780;7.726;2023-04-06T13:10:57;11.73;;;7.45;;
11823;SDS011;5969;50.780;7.726;2023-04-06T13:13:25;8.63;;;6.85;;
11823;SDS011;5969;50.780;7.726;2023-04-06T13:15:52;9.90;;;7.50;;
11823;SDS011;5969;50.780;7.726;2023-04-06T13:18:20;9.70;;;6.95;;
11823;SDS011;5969;50.780;7.726;2023-04-06T13:20:49;10.00;;;7.82;;
11823;SDS011;5969;50.780;7.726;2023-04-06T13:23:16;7.60;;;6.80;;
11823;SDS011;5969;50.780;7.726;2023-04-06T13:25:42;9.95;;;7.38;;
11823;SDS011;5969;50.780;7.726;2023-04-06T13:28:09;10.10;;;6.80;;
11823;SDS011;5969;50.780;7.726;2023-04-06T13:30:37;11.38;;;7.47;;
11823;SDS011;5969;50.780;7.726;2023-04-06T13:33:04;10.48;;;7.68;;
11823;SDS011;5969;50.780;7.726;2023-04-06T13:35:31;9.43;;;7.13;;
11823;SDS011;5969;50.780;7.726;2023-04-06T13:38:02;8.40;;;7.05;;
11823;SDS011;5969;50.780;7.726;2023-04-06T13:40:29;10.82;;;7.03;;
11823;SDS011;5969;50.780;7.726;2023-04-06T13:42:56;10.05;;;7.07;;
11823;SDS011;5969;50.780;7.726;2023-04-06T13:45:23;11.15;;;7.28;;
11823;SDS011;5969;50.780;7.726;2023-04-06T13:47:49;10.40;;;7.93;;
11823;SDS011;5969;50.780;7.726;2023-04-06T13:50:17;10.15;;;6.90;;
11823;SDS011;5969;50.780;7.726;2023-04-06T13:52:44;9.38;;;7.28;;
11823;SDS011;5969;50.780;7.726;2023-04-06T13:55:12;10.88;;;7.53;;
11823;SDS011;5969;50.780;7.726;2023-04-06T13:57:39;13.07;;;7.72;;
11823;SDS011;5969;50.780;7.726;2023-04-06T14:00:07;9.75;;;7.18;;
11823;SDS011;5969;50.780;7.726;2023-04-06T14:02:36;15.02;;;11.90;;
11823;SDS011;5969;50.780;7.726;2023-04-06T14:05:03;11.07;;;7.13;;
11823;SDS011;5969;50.780;7.726;2023-04-06T14:07:31;11.45;;;7.75;;
11823;SDS011;5969;50.780;7.726;2023-04-06T14:09:58;12.15;;;7.88;;
11823;SDS011;5969;50.780;7.726;2023-04-06T14:12:26;9.82;;;7.97;;
11823;SDS011;5969;50.780;7.726;2023-04-06T14:14:53;9.85;;;7.55;;
11823;SDS011;5969;50.780;7.726;2023-04-06T14:17:20;10.05;;;7.00;;
11823;SDS011;5969;50.780;7.726;2023-04-06T14:19:47;8.18;;;6.57;;
11823;SDS011;5969;50.780;7.726;2023-04-06T14:22:14;10.77;;;7.32;;
11823;SDS011;5969;50.780;7.726;2023-04-06T14:24:41;11.05;;;7.57;;
11823;SDS011;5969;50.780;7.726;2023-04-06T14:27:08;11.75;;;8.05;;
11823;SDS011;5969;50.780;7.726;2023-04-06T14:29:36;8.63;;;6.85;;
11823;SDS011;5969;50.780;7.726;2023-04-06T14:32:03;10.70;;;7.65;;
11823;SDS011;5969;50.780;7.726;2023-04-06T14:34:31;8.90;;;6.15;;
11823;SDS011;5969;50.780;7.726;2023-04-06T14:36:58;7.32;;;5.97;;
11823;SDS011;5969;50.780;7.726;2023-04-06T14:39:25;7.90;;;5.82;;
11823;SDS011;5969;50.780;7.726;2023-04-06T14:41:52;7.35;;;5.07;;
11823;SDS011;5969;50.780;7.726;2023-04-06T14:44:18;9.38;;;4.95;;
11823;SDS011;5969;50.780;7.726;2023-04-06T14:46:47;6.60;;;4.32;;
11823;SDS011;5969;50.780;7.726;2023-04-06T14:49:14;6.95;;;4.38;;
11823;SDS011;5969;50.780;7.726;2023-04-06T14:51:40;7.38;;;4.75;;
11823;SDS011;5969;50.780;7.726;2023-04-06T14:54:07;5.95;;;4.32;;
11823;SDS011;5969;50.780;7.726;2023-04-06T14:56:34;6.13;;;4.55;;
11823;SDS011;5969;50.780;7.726;2023-04-06T14:59:03;6.25;;;4.72;;
11823;SDS011;5969;50.780;7.726;2023-04-06T15:01:33;4.55;;;4.05;;
11823;SDS011;5969;50.780;7.726;2023-04-06T15:04:01;4.45;;;3.88;;
11823;SDS011;5969;50.780;7.726;2023-04-06T15:06:28;5.45;;;4.22;;
11823;SDS011;5969;50.780;7.726;2023-04-06T15:08:55;7.50;;;4.28;;
11823;SDS011;5969;50.780;7.726;2023-04-06T15:11:22;6.00;;;4.35;;